臺北終端管制區 - 桃園掃描雷達席

METAR RCTP 120330Z 08010KT 9999 FEW020 27/15 Q1017 NOSIG RMK A3004=

站台狀態:Online
最後更新:2019-11-12 11:45:02